createdAt,value
2019-01-19T20:52:28.255Z,49.05
2019-01-19T20:53:38.054Z,49.07
2019-01-19T20:54:38.015Z,49.77
2019-01-19T20:55:37.966Z,49.18
2019-01-19T20:56:37.954Z,49.25
2019-01-19T21:20:22.327Z,40.48
2019-01-19T21:21:22.303Z,40.83
2019-01-19T21:22:22.297Z,41.69
2019-01-19T21:23:22.298Z,42.54
2019-01-19T21:24:22.267Z,43.26
2019-01-19T21:25:22.262Z,43.77
2019-01-19T21:26:22.251Z,44.20
2019-01-19T21:27:22.239Z,44.72
2019-01-19T21:28:22.224Z,44.84
2019-01-19T21:29:22.234Z,45.25
2019-01-19T21:30:22.202Z,45.47
2019-01-19T21:31:22.195Z,45.57
2019-01-19T21:32:22.181Z,45.77
2019-01-19T21:33:22.173Z,45.89
2019-01-19T21:34:22.164Z,45.99
2019-01-19T21:35:22.171Z,46.09
2019-01-19T21:36:22.141Z,46.19
2019-01-19T21:37:22.125Z,46.39
2019-01-19T21:38:22.139Z,46.39
2019-01-19T21:39:22.104Z,46.29
2019-01-19T21:40:22.093Z,46.39
2019-01-19T21:41:22.090Z,46.49
2019-01-19T21:42:22.072Z,46.49
2019-01-19T21:43:22.063Z,46.69
2019-01-19T21:44:22.077Z,46.80
2019-01-19T21:45:22.050Z,46.81
2019-01-19T21:46:22.029Z,46.72
2019-01-19T21:47:22.022Z,46.61
2019-01-19T21:48:22.015Z,46.51
2019-01-19T21:49:22.000Z,46.51
2019-01-19T21:50:22.010Z,46.41
2019-01-19T21:51:21.975Z,46.41
2019-01-19T21:52:21.969Z,46.61
2019-01-19T21:53:21.958Z,46.61
2019-01-19T21:54:21.942Z,46.51
2019-01-19T21:55:22.152Z,46.61
2019-01-19T21:56:21.924Z,46.51
2019-01-19T21:57:21.912Z,46.51
2019-01-19T21:58:21.901Z,46.51
2019-01-19T21:59:21.890Z,46.51
2019-01-19T22:00:22.060Z,46.41
2019-01-19T22:01:21.893Z,46.51
2019-01-19T22:02:21.857Z,46.51
2019-01-19T22:03:21.852Z,46.51
2019-01-19T22:04:21.837Z,46.41
2019-01-19T22:05:21.827Z,46.41
2019-01-19T22:06:21.819Z,46.41
2019-01-19T22:07:21.820Z,46.41
2019-01-19T22:08:21.788Z,46.41
2019-01-19T22:09:21.839Z,46.44
2019-01-19T22:10:21.769Z,46.54
2019-01-19T22:11:21.760Z,46.54
2019-01-19T22:12:21.772Z,46.44
2019-01-19T22:13:21.741Z,46.54
2019-01-19T22:14:21.732Z,46.54
2019-01-19T22:15:21.720Z,46.54
2019-01-19T22:16:21.708Z,46.54
2019-01-19T22:17:21.693Z,46.54
2019-01-19T22:18:21.704Z,46.54
2019-01-19T22:19:21.677Z,46.44
2019-01-19T22:20:21.668Z,46.44
2019-01-19T22:21:21.650Z,46.44
2019-01-19T22:22:21.658Z,46.54
2019-01-19T22:23:21.628Z,46.54
2019-01-19T22:24:21.637Z,46.54
2019-01-19T22:25:21.616Z,46.54
2019-01-19T22:26:21.601Z,46.54
2019-01-19T22:27:21.588Z,46.54
2019-01-19T22:28:21.595Z,46.54
2019-01-19T22:29:21.563Z,46.54
2019-01-19T22:30:21.562Z,46.54
2019-01-19T22:31:21.541Z,46.54
2019-01-19T22:32:21.535Z,46.54
2019-01-19T22:33:21.528Z,46.54
2019-01-19T22:34:21.535Z,46.54
2019-01-19T22:35:21.722Z,46.54
2019-01-19T22:36:21.490Z,46.54
2019-01-19T22:37:21.487Z,46.54
2019-01-19T22:38:21.475Z,46.54
2019-01-19T22:39:21.463Z,46.54
2019-01-19T22:40:21.448Z,46.54
2019-01-19T22:41:21.454Z,46.54
2019-01-19T22:42:21.422Z,46.54
2019-01-19T22:43:21.420Z,46.44
2019-01-19T22:44:21.411Z,46.44
2019-01-19T22:45:21.392Z,46.44
2019-01-19T22:46:21.402Z,46.44
2019-01-19T22:47:21.370Z,46.44
2019-01-19T22:48:21.390Z,46.44
2019-01-19T22:49:21.350Z,46.44
2019-01-19T22:50:21.342Z,46.44
2019-01-19T22:51:21.328Z,46.44
2019-01-19T22:52:21.323Z,46.44
2019-01-19T22:53:21.304Z,46.44
2019-01-19T22:54:21.316Z,46.44
2019-01-19T22:55:21.287Z,46.44
2019-01-19T22:56:21.283Z,46.44
2019-01-19T22:57:21.265Z,46.44
2019-01-19T22:58:21.263Z,46.44
2019-01-19T22:59:21.265Z,46.44
2019-01-19T23:00:21.241Z,46.44
2019-01-19T23:01:21.221Z,46.44
2019-01-19T23:02:21.208Z,46.44
2019-01-19T23:03:21.198Z,46.44
2019-01-19T23:04:21.213Z,46.44
2019-01-19T23:05:21.183Z,46.44
2019-01-19T23:06:21.174Z,46.44
2019-01-19T23:07:22.491Z,46.44
2019-01-19T23:08:21.145Z,46.44
2019-01-19T23:09:21.154Z,46.44
2019-01-19T23:10:21.122Z,46.44
2019-01-19T23:11:21.116Z,46.44
2019-01-19T23:12:21.105Z,46.34
2019-01-19T23:13:21.090Z,46.34
2019-01-19T23:14:21.085Z,46.34
2019-01-19T23:15:21.091Z,46.34
2019-01-19T23:16:21.063Z,46.34
2019-01-19T23:17:21.049Z,46.34
2019-01-19T23:18:21.039Z,46.34
2019-01-19T23:19:21.051Z,46.34
2019-01-19T23:20:21.022Z,46.34
2019-01-19T23:21:21.004Z,46.34
2019-01-19T23:22:21.001Z,46.34
2019-01-19T23:23:20.989Z,46.34
2019-01-19T23:24:20.973Z,46.34
2019-01-19T23:25:21.025Z,46.34
2019-01-19T23:26:20.972Z,46.23
2019-01-19T23:27:20.944Z,46.23
2019-01-19T23:28:20.975Z,46.23
2019-01-19T23:29:20.919Z,46.23
2019-01-19T23:30:20.934Z,46.23
2019-01-19T23:31:20.901Z,46.34
2019-01-19T23:32:20.888Z,46.34
2019-01-19T23:33:20.899Z,46.34
2019-01-19T23:34:20.866Z,46.34
2019-01-19T23:35:20.859Z,46.34
2019-01-19T23:36:20.869Z,46.34
2019-01-19T23:37:20.856Z,46.34
2019-01-19T23:38:20.839Z,46.34
2019-01-19T23:39:20.855Z,46.34
2019-01-19T23:40:20.807Z,46.34
2019-01-19T23:41:20.811Z,46.34
2019-01-19T23:42:20.784Z,46.34
2019-01-19T23:43:20.777Z,46.34
2019-01-19T23:44:20.756Z,46.34
2019-01-19T23:45:20.746Z,46.34
2019-01-19T23:46:20.737Z,46.34
2019-01-19T23:47:20.745Z,46.34
2019-01-19T23:48:20.738Z,46.34
2019-01-19T23:49:20.710Z,46.34
2019-01-19T23:50:20.691Z,46.34
2019-01-19T23:51:22.332Z,46.44
2019-01-19T23:52:20.678Z,46.44
2019-01-19T23:53:20.684Z,46.44
2019-01-19T23:54:20.651Z,46.44
2019-01-19T23:55:20.645Z,46.44
2019-01-19T23:56:20.627Z,46.34
2019-01-19T23:57:20.655Z,46.34
2019-01-19T23:58:20.604Z,46.34
2019-01-19T23:59:20.621Z,46.34
